< < Back
Terminal Aerodrome Forecast


Current Version              Previous Versions:   1  2  3  4  5  6  7  8  9  

Terminal Aerodrome Forecast

434
FTUS42 KJAX 301700
TAFJAX
TAF
KJAX 301729Z 3018/0118 36008KT P6SM OVC012
     FM302000 02008KT P6SM SCT012 OVC025
     FM302300 04006KT P6SM SCT025 BKN040
     FM010900 35002KT P6SM SCT250
     FM011100 01004KT 6SM BR SCT007 SCT025
     FM011400 04006KT P6SM BKN025=

Latest METAR

615
SAUS80 KWBC 011600 RRI
MTRJAX
METAR KJAX 011556Z 04007KT 10SM SCT019 OVC060 26/22 A2998 RMK AO2 SLP152
T02610222


USA.gov is the U.S. government's official web portal to all federal, state and local government web resources and services.